sensor_id;sensor_type;location;lat;lon;timestamp;P1;durP1;ratioP1;P2;durP2;ratioP2
23242;SDS011;11790;49.578;11.214;2023-04-15T00:01:23;17.58;;;12.40;;
23242;SDS011;11790;49.578;11.214;2023-04-15T00:06:24;17.63;;;12.38;;
23242;SDS011;11790;49.578;11.214;2023-04-15T00:11:25;19.20;;;12.73;;
23242;SDS011;11790;49.578;11.214;2023-04-15T00:16:25;18.20;;;12.70;;
23242;SDS011;11790;49.578;11.214;2023-04-15T00:21:25;20.13;;;12.63;;
23242;SDS011;11790;49.578;11.214;2023-04-15T00:26:26;17.85;;;13.23;;
23242;SDS011;11790;49.578;11.214;2023-04-15T00:31:26;18.98;;;13.25;;
23242;SDS011;11790;49.578;11.214;2023-04-15T00:36:27;18.63;;;12.82;;
23242;SDS011;11790;49.578;11.214;2023-04-15T00:41:27;18.98;;;13.35;;
23242;SDS011;11790;49.578;11.214;2023-04-15T00:46:27;22.45;;;12.48;;
23242;SDS011;11790;49.578;11.214;2023-04-15T00:51:28;17.13;;;11.80;;
23242;SDS011;11790;49.578;11.214;2023-04-15T00:56:30;19.00;;;12.43;;
23242;SDS011;11790;49.578;11.214;2023-04-15T01:01:30;20.23;;;12.15;;
23242;SDS011;11790;49.578;11.214;2023-04-15T01:06:30;18.33;;;12.45;;
23242;SDS011;11790;49.578;11.214;2023-04-15T01:11:34;15.95;;;10.98;;
23242;SDS011;11790;49.578;11.214;2023-04-15T01:16:35;15.50;;;10.40;;
23242;SDS011;11790;49.578;11.214;2023-04-15T01:21:36;15.85;;;11.00;;
23242;SDS011;11790;49.578;11.214;2023-04-15T01:26:37;17.45;;;11.65;;
23242;SDS011;11790;49.578;11.214;2023-04-15T01:31:38;21.90;;;11.75;;
23242;SDS011;11790;49.578;11.214;2023-04-15T01:36:38;18.05;;;11.38;;
23242;SDS011;11790;49.578;11.214;2023-04-15T01:41:38;18.30;;;10.68;;
23242;SDS011;11790;49.578;11.214;2023-04-15T01:46:39;15.18;;;11.02;;
23242;SDS011;11790;49.578;11.214;2023-04-15T01:51:40;16.75;;;12.00;;
23242;SDS011;11790;49.578;11.214;2023-04-15T01:56:40;19.00;;;11.25;;
23242;SDS011;11790;49.578;11.214;2023-04-15T02:01:40;18.20;;;11.75;;
23242;SDS011;11790;49.578;11.214;2023-04-15T02:06:41;16.38;;;11.48;;
23242;SDS011;11790;49.578;11.214;2023-04-15T02:11:42;15.55;;;11.10;;
23242;SDS011;11790;49.578;11.214;2023-04-15T02:16:42;15.30;;;11.02;;
23242;SDS011;11790;49.578;11.214;2023-04-15T02:21:43;14.85;;;10.75;;
23242;SDS011;11790;49.578;11.214;2023-04-15T02:26:43;15.82;;;10.52;;
23242;SDS011;11790;49.578;11.214;2023-04-15T02:31:43;15.60;;;10.55;;
23242;SDS011;11790;49.578;11.214;2023-04-15T02:36:44;13.48;;;9.52;;
23242;SDS011;11790;49.578;11.214;2023-04-15T02:41:46;12.48;;;9.20;;
23242;SDS011;11790;49.578;11.214;2023-04-15T02:46:50;13.02;;;8.38;;
23242;SDS011;11790;49.578;11.214;2023-04-15T02:51:52;14.38;;;9.60;;
23242;SDS011;11790;49.578;11.214;2023-04-15T02:56:53;15.47;;;9.53;;
23242;SDS011;11790;49.578;11.214;2023-04-15T03:01:55;14.25;;;9.40;;
23242;SDS011;11790;49.578;11.214;2023-04-15T03:07:00;12.40;;;9.68;;
23242;SDS011;11790;49.578;11.214;2023-04-15T03:12:01;16.08;;;9.70;;
23242;SDS011;11790;49.578;11.214;2023-04-15T03:17:01;13.82;;;9.73;;
23242;SDS011;11790;49.578;11.214;2023-04-15T03:22:01;14.88;;;9.73;;
23242;SDS011;11790;49.578;11.214;2023-04-15T03:27:01;12.57;;;8.95;;
23242;SDS011;11790;49.578;11.214;2023-04-15T03:32:02;13.70;;;9.20;;
23242;SDS011;11790;49.578;11.214;2023-04-15T03:37:02;12.38;;;9.40;;
23242;SDS011;11790;49.578;11.214;2023-04-15T03:42:02;16.38;;;9.45;;
23242;SDS011;11790;49.578;11.214;2023-04-15T03:47:02;12.55;;;8.63;;
23242;SDS011;11790;49.578;11.214;2023-04-15T03:52:03;13.77;;;8.73;;
23242;SDS011;11790;49.578;11.214;2023-04-15T03:57:03;16.63;;;9.13;;
23242;SDS011;11790;49.578;11.214;2023-04-15T04:02:03;11.18;;;8.73;;
23242;SDS011;11790;49.578;11.214;2023-04-15T04:07:03;12.65;;;8.65;;
23242;SDS011;11790;49.578;11.214;2023-04-15T04:12:03;14.48;;;8.20;;
23242;SDS011;11790;49.578;11.214;2023-04-15T04:17:04;12.32;;;8.55;;
23242;SDS011;11790;49.578;11.214;2023-04-15T04:22:04;13.77;;;8.90;;
23242;SDS011;11790;49.578;11.214;2023-04-15T04:27:04;14.45;;;8.35;;
23242;SDS011;11790;49.578;11.214;2023-04-15T04:32:04;11.70;;;8.13;;
23242;SDS011;11790;49.578;11.214;2023-04-15T04:37:05;11.20;;;7.95;;
23242;SDS011;11790;49.578;11.214;2023-04-15T04:42:06;12.18;;;8.30;;
23242;SDS011;11790;49.578;11.214;2023-04-15T04:47:07;11.77;;;8.77;;
23242;SDS011;11790;49.578;11.214;2023-04-15T04:52:07;12.07;;;8.70;;
23242;SDS011;11790;49.578;11.214;2023-04-15T04:57:07;12.70;;;8.83;;
23242;SDS011;11790;49.578;11.214;2023-04-15T05:02:07;16.27;;;9.68;;
23242;SDS011;11790;49.578;11.214;2023-04-15T05:07:08;13.18;;;9.05;;
23242;SDS011;11790;49.578;11.214;2023-04-15T05:12:08;12.38;;;8.50;;
23242;SDS011;11790;49.578;11.214;2023-04-15T05:17:13;13.32;;;9.10;;
23242;SDS011;11790;49.578;11.214;2023-04-15T05:22:14;14.80;;;9.48;;
23242;SDS011;11790;49.578;11.214;2023-04-15T05:27:14;15.50;;;8.93;;
23242;SDS011;11790;49.578;11.214;2023-04-15T05:32:14;15.38;;;8.48;;
23242;SDS011;11790;49.578;11.214;2023-04-15T05:37:14;13.38;;;8.73;;
23242;SDS011;11790;49.578;11.214;2023-04-15T05:42:15;13.35;;;8.68;;
23242;SDS011;11790;49.578;11.214;2023-04-15T05:47:15;13.10;;;8.82;;
23242;SDS011;11790;49.578;11.214;2023-04-15T05:52:15;10.73;;;7.72;;
23242;SDS011;11790;49.578;11.214;2023-04-15T05:57:16;12.35;;;8.35;;
23242;SDS011;11790;49.578;11.214;2023-04-15T06:02:16;14.27;;;9.10;;
23242;SDS011;11790;49.578;11.214;2023-04-15T06:07:16;12.90;;;8.73;;
23242;SDS011;11790;49.578;11.214;2023-04-15T06:12:16;14.60;;;9.32;;
23242;SDS011;11790;49.578;11.214;2023-04-15T06:17:17;14.70;;;8.80;;
23242;SDS011;11790;49.578;11.214;2023-04-15T06:22:18;14.75;;;9.65;;
23242;SDS011;11790;49.578;11.214;2023-04-15T06:27:18;12.23;;;8.85;;
23242;SDS011;11790;49.578;11.214;2023-04-15T06:32:18;14.73;;;8.90;;
23242;SDS011;11790;49.578;11.214;2023-04-15T06:37:18;14.82;;;9.00;;
23242;SDS011;11790;49.578;11.214;2023-04-15T06:42:18;12.60;;;9.20;;
23242;SDS011;11790;49.578;11.214;2023-04-15T06:47:20;16.25;;;9.88;;
23242;SDS011;11790;49.578;11.214;2023-04-15T06:52:20;13.25;;;9.27;;
23242;SDS011;11790;49.578;11.214;2023-04-15T06:57:20;15.25;;;9.18;;
23242;SDS011;11790;49.578;11.214;2023-04-15T07:02:20;13.88;;;8.82;;
23242;SDS011;11790;49.578;11.214;2023-04-15T07:07:21;12.73;;;9.43;;
23242;SDS011;11790;49.578;11.214;2023-04-15T07:12:21;11.05;;;8.25;;
23242;SDS011;11790;49.578;11.214;2023-04-15T07:17:21;12.75;;;8.98;;
23242;SDS011;11790;49.578;11.214;2023-04-15T07:22:21;14.30;;;8.93;;
23242;SDS011;11790;49.578;11.214;2023-04-15T07:27:22;14.50;;;9.57;;
23242;SDS011;11790;49.578;11.214;2023-04-15T07:32:22;13.65;;;8.60;;
23242;SDS011;11790;49.578;11.214;2023-04-15T07:37:22;14.95;;;10.02;;
23242;SDS011;11790;49.578;11.214;2023-04-15T07:42:22;14.75;;;9.02;;
23242;SDS011;11790;49.578;11.214;2023-04-15T07:47:22;13.65;;;8.95;;
23242;SDS011;11790;49.578;11.214;2023-04-15T07:52:22;13.30;;;9.00;;
23242;SDS011;11790;49.578;11.214;2023-04-15T07:57:23;12.98;;;8.90;;
23242;SDS011;11790;49.578;11.214;2023-04-15T08:02:23;12.65;;;8.55;;
23242;SDS011;11790;49.578;11.214;2023-04-15T08:07:23;13.48;;;8.88;;
23242;SDS011;11790;49.578;11.214;2023-04-15T08:12:24;14.38;;;9.30;;
23242;SDS011;11790;49.578;11.214;2023-04-15T08:17:24;13.73;;;9.90;;
23242;SDS011;11790;49.578;11.214;2023-04-15T08:22:25;12.23;;;8.27;;
23242;SDS011;11790;49.578;11.214;2023-04-15T08:27:25;13.40;;;8.80;;
23242;SDS011;11790;49.578;11.214;2023-04-15T08:32:25;13.15;;;8.18;;
23242;SDS011;11790;49.578;11.214;2023-04-15T08:37:26;12.10;;;8.35;;
23242;SDS011;11790;49.578;11.214;2023-04-15T08:42:26;11.38;;;8.05;;
23242;SDS011;11790;49.578;11.214;2023-04-15T08:47:30;9.55;;;7.10;;
23242;SDS011;11790;49.578;11.214;2023-04-15T08:52:33;11.70;;;7.00;;
23242;SDS011;11790;49.578;11.214;2023-04-15T08:57:33;9.63;;;5.95;;
23242;SDS011;11790;49.578;11.214;2023-04-15T09:02:34;9.10;;;5.80;;
23242;SDS011;11790;49.578;11.214;2023-04-15T09:07:34;9.75;;;6.32;;
23242;SDS011;11790;49.578;11.214;2023-04-15T09:12:35;10.77;;;7.00;;
23242;SDS011;11790;49.578;11.214;2023-04-15T09:17:36;9.48;;;6.68;;
23242;SDS011;11790;49.578;11.214;2023-04-15T09:22:41;9.15;;;4.80;;
23242;SDS011;11790;49.578;11.214;2023-04-15T09:27:48;5.38;;;4.03;;
23242;SDS011;11790;49.578;11.214;2023-04-15T09:32:52;4.85;;;3.70;;
23242;SDS011;11790;49.578;11.214;2023-04-15T09:37:53;5.97;;;3.55;;
23242;SDS011;11790;49.578;11.214;2023-04-15T09:43:01;4.47;;;2.92;;
23242;SDS011;11790;49.578;11.214;2023-04-15T09:48:15;3.33;;;2.33;;
23242;SDS011;11790;49.578;11.214;2023-04-15T09:53:16;3.35;;;2.60;;
23242;SDS011;11790;49.578;11.214;2023-04-15T09:58:21;3.47;;;2.28;;
23242;SDS011;11790;49.578;11.214;2023-04-15T10:03:25;3.33;;;2.30;;
23242;SDS011;11790;49.578;11.214;2023-04-15T10:08:27;4.57;;;3.08;;
23242;SDS011;11790;49.578;11.214;2023-04-15T10:13:29;4.75;;;3.05;;
23242;SDS011;11790;49.578;11.214;2023-04-15T10:18:33;6.22;;;4.15;;
23242;SDS011;11790;49.578;11.214;2023-04-15T10:23:34;7.20;;;4.10;;
23242;SDS011;11790;49.578;11.214;2023-04-15T10:28:34;10.18;;;5.30;;
23242;SDS011;11790;49.578;11.214;2023-04-15T10:33:34;8.35;;;5.75;;
23242;SDS011;11790;49.578;11.214;2023-04-15T10:43:35;6.97;;;5.40;;
23242;SDS011;11790;49.578;11.214;2023-04-15T10:48:35;9.98;;;5.50;;
23242;SDS011;11790;49.578;11.214;2023-04-15T10:53:36;9.10;;;5.18;;
23242;SDS011;11790;49.578;11.214;2023-04-15T10:58:41;7.15;;;5.05;;
23242;SDS011;11790;49.578;11.214;2023-04-15T11:03:42;7.60;;;5.10;;
23242;SDS011;11790;49.578;11.214;2023-04-15T11:08:52;9.38;;;5.20;;
23242;SDS011;11790;49.578;11.214;2023-04-15T11:13:52;7.13;;;4.97;;
23242;SDS011;11790;49.578;11.214;2023-04-15T11:18:55;5.00;;;3.78;;
23242;SDS011;11790;49.578;11.214;2023-04-15T11:23:55;4.90;;;3.47;;
23242;SDS011;11790;49.578;11.214;2023-04-15T11:28:55;4.82;;;3.78;;
23242;SDS011;11790;49.578;11.214;2023-04-15T11:33:57;4.63;;;3.47;;
23242;SDS011;11790;49.578;11.214;2023-04-15T11:38:58;5.43;;;3.10;;
23242;SDS011;11790;49.578;11.214;2023-04-15T11:43:58;3.90;;;2.78;;
23242;SDS011;11790;49.578;11.214;2023-04-15T11:48:59;3.38;;;2.67;;
23242;SDS011;11790;49.578;11.214;2023-04-15T11:53:59;5.00;;;2.75;;
23242;SDS011;11790;49.578;11.214;2023-04-15T11:58:59;4.35;;;2.65;;
23242;SDS011;11790;49.578;11.214;2023-04-15T12:04:00;4.05;;;2.90;;
23242;SDS011;11790;49.578;11.214;2023-04-15T12:09:07;4.10;;;2.95;;
23242;SDS011;11790;49.578;11.214;2023-04-15T12:19:15;4.35;;;3.05;;
23242;SDS011;11790;49.578;11.214;2023-04-15T12:24:18;5.22;;;3.70;;
23242;SDS011;11790;49.578;11.214;2023-04-15T12:29:19;3.42;;;2.78;;
23242;SDS011;11790;49.578;11.214;2023-04-15T12:39:36;3.10;;;2.40;;
23242;SDS011;11790;49.578;11.214;2023-04-15T12:44:37;3.47;;;2.90;;
23242;SDS011;11790;49.578;11.214;2023-04-15T12:49:37;3.10;;;2.65;;
23242;SDS011;11790;49.578;11.214;2023-04-15T12:54:38;5.38;;;2.63;;
23242;SDS011;11790;49.578;11.214;2023-04-15T12:59:38;4.17;;;3.27;;
23242;SDS011;11790;49.578;11.214;2023-04-15T13:04:38;3.70;;;2.70;;
23242;SDS011;11790;49.578;11.214;2023-04-15T13:09:39;3.55;;;2.80;;
23242;SDS011;11790;49.578;11.214;2023-04-15T13:14:39;3.35;;;2.85;;
23242;SDS011;11790;49.578;11.214;2023-04-15T13:19:39;4.17;;;3.30;;
23242;SDS011;11790;49.578;11.214;2023-04-15T13:24:39;3.63;;;2.85;;
23242;SDS011;11790;49.578;11.214;2023-04-15T13:29:40;2.60;;;2.30;;
23242;SDS011;11790;49.578;11.214;2023-04-15T13:34:40;3.40;;;2.55;;
23242;SDS011;11790;49.578;11.214;2023-04-15T13:39:40;3.88;;;2.47;;
23242;SDS011;11790;49.578;11.214;2023-04-15T13:44:41;4.53;;;2.70;;
23242;SDS011;11790;49.578;11.214;2023-04-15T13:49:41;4.07;;;3.08;;
23242;SDS011;11790;49.578;11.214;2023-04-15T13:54:41;7.35;;;3.10;;
23242;SDS011;11790;49.578;11.214;2023-04-15T13:59:41;3.40;;;2.90;;
23242;SDS011;11790;49.578;11.214;2023-04-15T14:04:43;5.13;;;3.10;;
23242;SDS011;11790;49.578;11.214;2023-04-15T14:09:43;3.33;;;2.55;;
23242;SDS011;11790;49.578;11.214;2023-04-15T14:14:43;3.70;;;2.70;;
23242;SDS011;11790;49.578;11.214;2023-04-15T14:19:44;3.22;;;2.72;;
23242;SDS011;11790;49.578;11.214;2023-04-15T14:24:45;3.78;;;2.63;;
23242;SDS011;11790;49.578;11.214;2023-04-15T14:29:47;2.88;;;2.45;;
23242;SDS011;11790;49.578;11.214;2023-04-15T14:34:47;3.80;;;2.55;;
23242;SDS011;11790;49.578;11.214;2023-04-15T14:39:48;3.40;;;2.80;;
23242;SDS011;11790;49.578;11.214;2023-04-15T14:44:48;3.38;;;2.78;;
23242;SDS011;11790;49.578;11.214;2023-04-15T14:49:48;2.85;;;2.45;;
23242;SDS011;11790;49.578;11.214;2023-04-15T14:54:48;3.17;;;2.60;;
23242;SDS011;11790;49.578;11.214;2023-04-15T14:59:49;4.68;;;2.90;;
23242;SDS011;11790;49.578;11.214;2023-04-15T15:04:49;5.80;;;2.83;;
23242;SDS011;11790;49.578;11.214;2023-04-15T15:09:50;3.00;;;2.25;;
23242;SDS011;11790;49.578;11.214;2023-04-15T15:14:50;3.53;;;2.60;;
23242;SDS011;11790;49.578;11.214;2023-04-15T15:19:50;3.97;;;2.92;;
23242;SDS011;11790;49.578;11.214;2023-04-15T15:24:50;3.33;;;2.90;;
23242;SDS011;11790;49.578;11.214;2023-04-15T15:29:50;4.22;;;2.70;;
23242;SDS011;11790;49.578;11.214;2023-04-15T15:34:50;3.47;;;2.95;;
23242;SDS011;11790;49.578;11.214;2023-04-15T15:39:51;4.22;;;3.13;;
23242;SDS011;11790;49.578;11.214;2023-04-15T15:44:52;5.47;;;2.92;;
23242;SDS011;11790;49.578;11.214;2023-04-15T15:49:52;3.70;;;2.95;;
23242;SDS011;11790;49.578;11.214;2023-04-15T15:54:53;5.75;;;2.90;;
23242;SDS011;11790;49.578;11.214;2023-04-15T15:59:53;3.33;;;2.80;;
23242;SDS011;11790;49.578;11.214;2023-04-15T16:04:53;3.63;;;2.75;;
23242;SDS011;11790;49.578;11.214;2023-04-15T16:09:53;5.32;;;3.38;;
23242;SDS011;11790;49.578;11.214;2023-04-15T16:14:53;4.90;;;3.35;;
23242;SDS011;11790;49.578;11.214;2023-04-15T16:19:54;4.07;;;3.22;;
23242;SDS011;11790;49.578;11.214;2023-04-15T16:24:54;4.88;;;3.67;;
23242;SDS011;11790;49.578;11.214;2023-04-15T16:29:54;4.78;;;3.67;;
23242;SDS011;11790;49.578;11.214;2023-04-15T16:34:54;5.07;;;3.53;;
23242;SDS011;11790;49.578;11.214;2023-04-15T16:39:54;4.70;;;3.80;;
23242;SDS011;11790;49.578;11.214;2023-04-15T16:44:55;5.03;;;3.90;;
23242;SDS011;11790;49.578;11.214;2023-04-15T16:49:55;4.95;;;4.00;;
23242;SDS011;11790;49.578;11.214;2023-04-15T16:54:55;4.95;;;3.60;;
23242;SDS011;11790;49.578;11.214;2023-04-15T16:59:55;4.60;;;3.90;;
23242;SDS011;11790;49.578;11.214;2023-04-15T17:04:55;4.72;;;3.70;;
23242;SDS011;11790;49.578;11.214;2023-04-15T17:09:55;4.13;;;3.30;;
23242;SDS011;11790;49.578;11.214;2023-04-15T17:14:56;5.63;;;3.60;;
23242;SDS011;11790;49.578;11.214;2023-04-15T17:19:56;4.32;;;3.42;;
23242;SDS011;11790;49.578;11.214;2023-04-15T17:24:56;5.45;;;3.97;;
23242;SDS011;11790;49.578;11.214;2023-04-15T17:29:56;8.57;;;4.28;;
23242;SDS011;11790;49.578;11.214;2023-04-15T17:34:56;6.07;;;4.10;;
23242;SDS011;11790;49.578;11.214;2023-04-15T17:39:58;7.22;;;5.13;;
23242;SDS011;11790;49.578;11.214;2023-04-15T17:44:58;9.27;;;5.65;;
23242;SDS011;11790;49.578;11.214;2023-04-15T17:49:58;6.60;;;5.13;;
23242;SDS011;11790;49.578;11.214;2023-04-15T17:54:58;7.18;;;4.95;;
23242;SDS011;11790;49.578;11.214;2023-04-15T17:59:58;6.93;;;4.88;;
23242;SDS011;11790;49.578;11.214;2023-04-15T18:04:59;7.45;;;4.80;;
23242;SDS011;11790;49.578;11.214;2023-04-15T18:09:59;7.65;;;4.85;;
23242;SDS011;11790;49.578;11.214;2023-04-15T18:14:59;7.90;;;4.80;;
23242;SDS011;11790;49.578;11.214;2023-04-15T18:19:59;6.10;;;4.65;;
23242;SDS011;11790;49.578;11.214;2023-04-15T18:24:59;5.53;;;4.13;;
23242;SDS011;11790;49.578;11.214;2023-04-15T18:30:03;5.07;;;3.75;;
23242;SDS011;11790;49.578;11.214;2023-04-15T18:35:04;4.68;;;3.65;;
23242;SDS011;11790;49.578;11.214;2023-04-15T18:40:05;4.60;;;3.58;;
23242;SDS011;11790;49.578;11.214;2023-04-15T18:45:05;4.95;;;3.58;;
23242;SDS011;11790;49.578;11.214;2023-04-15T18:50:06;5.35;;;3.83;;
23242;SDS011;11790;49.578;11.214;2023-04-15T18:55:07;4.43;;;3.55;;
23242;SDS011;11790;49.578;11.214;2023-04-15T19:00:08;5.20;;;4.10;;
23242;SDS011;11790;49.578;11.214;2023-04-15T19:05:08;4.93;;;3.75;;
23242;SDS011;11790;49.578;11.214;2023-04-15T19:10:09;5.30;;;3.88;;
23242;SDS011;11790;49.578;11.214;2023-04-15T19:15:09;5.03;;;3.97;;
23242;SDS011;11790;49.578;11.214;2023-04-15T19:20:09;5.63;;;4.22;;
23242;SDS011;11790;49.578;11.214;2023-04-15T19:25:10;6.07;;;4.85;;
23242;SDS011;11790;49.578;11.214;2023-04-15T19:30:10;4.70;;;3.85;;
23242;SDS011;11790;49.578;11.214;2023-04-15T19:35:10;10.35;;;4.40;;
23242;SDS011;11790;49.578;11.214;2023-04-15T19:40:10;6.10;;;4.00;;
23242;SDS011;11790;49.578;11.214;2023-04-15T19:45:10;24.33;;;10.55;;
23242;SDS011;11790;49.578;11.214;2023-04-15T19:50:11;29.92;;;12.88;;
23242;SDS011;11790;49.578;11.214;2023-04-15T19:55:11;10.90;;;5.88;;
23242;SDS011;11790;49.578;11.214;2023-04-15T20:00:12;11.48;;;6.53;;
23242;SDS011;11790;49.578;11.214;2023-04-15T20:05:12;17.52;;;9.52;;
23242;SDS011;11790;49.578;11.214;2023-04-15T20:10:13;7.60;;;4.80;;
23242;SDS011;11790;49.578;11.214;2023-04-15T20:15:15;6.00;;;4.20;;
23242;SDS011;11790;49.578;11.214;2023-04-15T20:20:16;5.28;;;4.03;;
23242;SDS011;11790;49.578;11.214;2023-04-15T20:25:16;5.07;;;3.60;;
23242;SDS011;11790;49.578;11.214;2023-04-15T20:30:16;4.10;;;3.38;;
23242;SDS011;11790;49.578;11.214;2023-04-15T20:35:16;5.70;;;3.95;;
23242;SDS011;11790;49.578;11.214;2023-04-15T20:40:16;5.22;;;3.78;;
23242;SDS011;11790;49.578;11.214;2023-04-15T20:45:17;5.80;;;4.22;;
23242;SDS011;11790;49.578;11.214;2023-04-15T20:50:17;6.32;;;3.70;;
23242;SDS011;11790;49.578;11.214;2023-04-15T20:55:17;4.80;;;4.00;;
23242;SDS011;11790;49.578;11.214;2023-04-15T21:00:17;5.85;;;4.50;;
23242;SDS011;11790;49.578;11.214;2023-04-15T21:05:17;7.22;;;4.28;;
23242;SDS011;11790;49.578;11.214;2023-04-15T21:10:17;5.78;;;4.68;;
23242;SDS011;11790;49.578;11.214;2023-04-15T21:15:18;8.68;;;4.20;;
23242;SDS011;11790;49.578;11.214;2023-04-15T21:20:18;7.03;;;5.10;;
23242;SDS011;11790;49.578;11.214;2023-04-15T21:25:18;6.85;;;4.50;;
23242;SDS011;11790;49.578;11.214;2023-04-15T21:30:18;8.52;;;5.25;;
23242;SDS011;11790;49.578;11.214;2023-04-15T21:35:18;6.25;;;4.45;;
23242;SDS011;11790;49.578;11.214;2023-04-15T21:40:18;6.28;;;4.95;;
23242;SDS011;11790;49.578;11.214;2023-04-15T21:45:19;5.20;;;4.45;;
23242;SDS011;11790;49.578;11.214;2023-04-15T21:50:19;6.07;;;4.47;;
23242;SDS011;11790;49.578;11.214;2023-04-15T21:55:19;6.90;;;4.90;;
23242;SDS011;11790;49.578;11.214;2023-04-15T22:00:20;6.82;;;5.30;;
23242;SDS011;11790;49.578;11.214;2023-04-15T22:05:21;6.35;;;4.88;;
23242;SDS011;11790;49.578;11.214;2023-04-15T22:10:22;5.93;;;4.82;;
23242;SDS011;11790;49.578;11.214;2023-04-15T22:15:22;7.20;;;5.32;;
23242;SDS011;11790;49.578;11.214;2023-04-15T22:20:22;7.33;;;5.27;;
23242;SDS011;11790;49.578;11.214;2023-04-15T22:25:22;6.20;;;5.13;;
23242;SDS011;11790;49.578;11.214;2023-04-15T22:30:23;8.38;;;5.97;;
23242;SDS011;11790;49.578;11.214;2023-04-15T22:35:23;7.07;;;5.28;;
23242;SDS011;11790;49.578;11.214;2023-04-15T22:40:23;8.13;;;6.32;;
23242;SDS011;11790;49.578;11.214;2023-04-15T22:45:23;6.70;;;5.43;;
23242;SDS011;11790;49.578;11.214;2023-04-15T22:50:23;9.40;;;5.57;;
23242;SDS011;11790;49.578;11.214;2023-04-15T22:55:24;7.13;;;5.57;;
23242;SDS011;11790;49.578;11.214;2023-04-15T23:00:24;8.10;;;6.20;;
23242;SDS011;11790;49.578;11.214;2023-04-15T23:05:24;7.45;;;5.47;;
23242;SDS011;11790;49.578;11.214;2023-04-15T23:10:24;11.25;;;5.75;;
23242;SDS011;11790;49.578;11.214;2023-04-15T23:15:24;7.35;;;5.55;;
23242;SDS011;11790;49.578;11.214;2023-04-15T23:20:24;7.50;;;5.85;;
23242;SDS011;11790;49.578;11.214;2023-04-15T23:25:25;8.43;;;6.10;;
23242;SDS011;11790;49.578;11.214;2023-04-15T23:30:25;8.48;;;6.35;;
23242;SDS011;11790;49.578;11.214;2023-04-15T23:35:25;9.23;;;7.05;;
23242;SDS011;11790;49.578;11.214;2023-04-15T23:40:26;7.28;;;5.90;;
23242;SDS011;11790;49.578;11.214;2023-04-15T23:45:26;12.27;;;6.65;;
23242;SDS011;11790;49.578;11.214;2023-04-15T23:50:26;10.25;;;6.85;;
23242;SDS011;11790;49.578;11.214;2023-04-15T23:55:27;9.68;;;7.00;;
